createdAt,value
2019-03-22T00:01:23.240Z,17.60
2019-03-22T00:03:55.615Z,17.60
2019-03-22T00:06:29.314Z,17.65
2019-03-22T00:09:03.948Z,17.47
2019-03-22T00:11:36.077Z,17.56
2019-03-22T00:14:10.158Z,17.56
2019-03-22T00:16:42.589Z,17.44
2019-03-22T00:19:18.303Z,17.48
2019-03-22T00:21:49.370Z,17.58
2019-03-22T00:24:24.650Z,17.66
2019-03-22T00:26:56.396Z,17.12
2019-03-22T00:29:31.286Z,17.49
2019-03-22T00:32:04.582Z,17.51
2019-03-22T00:34:37.126Z,17.47
2019-03-22T00:37:09.006Z,17.44
2019-03-22T00:39:40.148Z,17.42
2019-03-22T00:42:12.663Z,17.48
2019-03-22T00:44:46.673Z,17.51
2019-03-22T00:47:18.198Z,17.39
2019-03-22T00:49:49.751Z,17.46
2019-03-22T00:52:21.163Z,17.47
2019-03-22T00:54:55.175Z,17.48
2019-03-22T00:57:28.634Z,17.53
2019-03-22T01:00:02.842Z,17.43
2019-03-22T01:02:35.873Z,17.26
2019-03-22T01:05:10.055Z,17.23
2019-03-22T01:07:41.651Z,17.18
2019-03-22T01:10:13.778Z,17.20
2019-03-22T01:12:45.230Z,17.03
2019-03-22T01:15:17.719Z,16.91
2019-03-22T01:17:48.820Z,16.47
2019-03-22T01:20:22.553Z,16.88
2019-03-22T01:22:55.353Z,16.99
2019-03-22T01:25:27.506Z,16.95
2019-03-22T01:28:01.032Z,16.56
2019-03-22T01:30:34.807Z,16.29
2019-03-22T01:33:06.620Z,16.38
2019-03-22T01:35:39.744Z,16.02
2019-03-22T01:38:14.181Z,16.08
2019-03-22T01:40:48.819Z,16.17
2019-03-22T01:43:22.365Z,16.20
2019-03-22T01:45:55.706Z,16.43
2019-03-22T01:48:27.234Z,16.40
2019-03-22T01:51:00.446Z,16.40
2019-03-22T01:53:32.637Z,16.45
2019-03-22T01:56:03.777Z,16.57
2019-03-22T01:58:34.495Z,16.53
2019-03-22T02:01:06.685Z,16.26
2019-03-22T02:03:39.574Z,16.50
2019-03-22T02:06:12.110Z,16.54
2019-03-22T02:08:45.202Z,16.34
2019-03-22T02:11:18.310Z,16.52
2019-03-22T02:13:51.301Z,16.62
2019-03-22T02:16:23.835Z,16.43
2019-03-22T02:18:55.300Z,16.56
2019-03-22T02:21:28.299Z,16.54
2019-03-22T02:24:03.975Z,16.62
2019-03-22T02:26:38.256Z,16.68
2019-03-22T02:29:10.523Z,16.65
2019-03-22T02:31:45.096Z,16.68
2019-03-22T02:34:19.489Z,16.69
2019-03-22T02:36:51.498Z,16.41
2019-03-22T02:39:24.818Z,16.60
2019-03-22T02:41:57.078Z,16.33
2019-03-22T02:44:30.613Z,16.09
2019-03-22T02:47:03.128Z,16.23
2019-03-22T02:49:33.856Z,16.28
2019-03-22T02:52:06.112Z,16.15
2019-03-22T02:54:37.853Z,15.95
2019-03-22T02:57:10.396Z,15.51
2019-03-22T02:59:43.174Z,15.58
2019-03-22T03:02:14.633Z,15.40
2019-03-22T03:04:49.019Z,15.28
2019-03-22T03:07:20.634Z,15.33
2019-03-22T03:09:53.016Z,15.50
2019-03-22T03:12:23.798Z,15.30
2019-03-22T03:14:55.054Z,15.36
2019-03-22T03:17:27.069Z,15.30
2019-03-22T03:19:59.028Z,15.41
2019-03-22T03:22:31.209Z,15.31
2019-03-22T03:25:07.364Z,15.13
2019-03-22T03:27:40.723Z,15.25
2019-03-22T03:30:18.533Z,14.99
2019-03-22T03:32:51.042Z,14.91
2019-03-22T03:35:22.617Z,14.46
2019-03-22T03:37:54.130Z,14.80
2019-03-22T03:40:26.494Z,14.89
2019-03-22T03:42:59.858Z,14.85
2019-03-22T03:45:34.947Z,14.94
2019-03-22T03:48:08.394Z,15.07
2019-03-22T03:50:39.969Z,15.02
2019-03-22T03:53:12.180Z,15.14
2019-03-22T03:55:43.778Z,15.24
2019-03-22T03:58:15.384Z,15.36
2019-03-22T04:00:46.426Z,15.46
2019-03-22T04:03:18.058Z,15.55
2019-03-22T04:05:50.087Z,15.70
2019-03-22T04:08:21.309Z,15.76
2019-03-22T04:10:52.937Z,15.75
2019-03-22T04:13:25.186Z,15.69
2019-03-22T04:15:56.962Z,15.79
2019-03-22T04:18:28.997Z,15.61
2019-03-22T04:21:03.118Z,15.39
2019-03-22T04:23:36.922Z,15.53
2019-03-22T04:26:07.648Z,15.46
2019-03-22T04:28:40.331Z,15.32
2019-03-22T04:31:13.178Z,15.05
2019-03-22T04:33:45.162Z,15.04
2019-03-22T04:36:15.916Z,15.10
2019-03-22T04:38:47.951Z,14.89
2019-03-22T04:41:19.971Z,14.65
2019-03-22T04:43:51.096Z,14.30
2019-03-22T04:46:22.715Z,14.31
2019-03-22T04:48:55.663Z,14.32
2019-03-22T04:51:27.282Z,14.32
2019-03-22T04:54:03.546Z,14.59
2019-03-22T04:56:39.252Z,14.54
2019-03-22T04:59:19.350Z,14.77
2019-03-22T05:01:50.874Z,14.73
2019-03-22T05:04:27.357Z,14.74
2019-03-22T05:06:59.869Z,14.82
2019-03-22T05:09:33.057Z,14.76
2019-03-22T05:12:09.856Z,14.41
2019-03-22T05:14:44.678Z,14.64
2019-03-22T05:17:17.264Z,14.39
2019-03-22T05:19:54.374Z,14.58
2019-03-22T05:22:28.554Z,14.59
2019-03-22T05:25:05.003Z,14.73
2019-03-22T05:27:40.094Z,14.77
2019-03-22T05:30:31.724Z,14.78
2019-03-22T05:33:05.253Z,14.38
2019-03-22T05:35:38.661Z,14.29
2019-03-22T05:38:11.490Z,13.94
2019-03-22T05:40:46.008Z,13.59
2019-03-22T05:43:17.790Z,13.65
2019-03-22T05:45:48.526Z,13.39
2019-03-22T05:48:20.486Z,13.66
2019-03-22T05:50:52.243Z,13.78
2019-03-22T05:53:24.275Z,13.15
2019-03-22T05:55:55.797Z,13.43
2019-03-22T05:58:29.619Z,13.75
2019-03-22T06:01:02.698Z,13.93
2019-03-22T06:03:37.769Z,14.01
2019-03-22T06:06:10.768Z,13.79
2019-03-22T06:08:44.169Z,14.00
2019-03-22T06:11:15.762Z,13.66
2019-03-22T06:13:48.275Z,13.90
2019-03-22T06:16:19.319Z,13.87
2019-03-22T06:18:51.643Z,14.35
2019-03-22T06:21:25.039Z,14.27
2019-03-22T06:23:59.215Z,14.38
2019-03-22T06:26:34.521Z,14.08
2019-03-22T06:29:06.293Z,14.23
2019-03-22T06:31:40.807Z,14.09
2019-03-22T06:34:49.218Z,14.23
2019-03-22T06:37:22.860Z,14.33
2019-03-22T06:39:53.569Z,14.45
2019-03-22T06:42:25.182Z,14.47
2019-03-22T06:44:57.062Z,14.43
2019-03-22T06:47:27.966Z,14.31
2019-03-22T06:49:59.212Z,14.51
2019-03-22T06:52:33.698Z,14.50
2019-03-22T06:55:08.162Z,14.19
2019-03-22T06:57:41.811Z,14.74
2019-03-22T07:00:15.331Z,14.66
2019-03-22T07:02:46.429Z,14.70
2019-03-22T07:05:18.343Z,14.63
2019-03-22T07:07:51.276Z,14.75
2019-03-22T07:10:23.384Z,14.89
2019-03-22T07:12:55.044Z,15.18
2019-03-22T07:15:28.055Z,15.12
2019-03-22T07:17:59.557Z,15.07
2019-03-22T07:20:30.709Z,14.96
2019-03-22T07:23:02.942Z,14.70
2019-03-22T07:25:34.099Z,14.95
2019-03-22T07:28:05.161Z,15.08
2019-03-22T07:30:36.759Z,14.93
2019-03-22T07:33:10.815Z,15.11
2019-03-22T07:35:44.011Z,15.08
2019-03-22T07:38:16.144Z,15.24
2019-03-22T07:40:48.331Z,15.10
2019-03-22T07:43:19.554Z,15.49
2019-03-22T07:45:51.575Z,15.42
2019-03-22T07:48:23.487Z,15.69
2019-03-22T07:50:57.252Z,16.00
2019-03-22T07:53:29.810Z,15.69
2019-03-22T07:56:04.313Z,15.96
2019-03-22T07:58:37.033Z,16.21
2019-03-22T08:01:08.025Z,16.31
2019-03-22T08:04:03.366Z,16.10
2019-03-22T08:06:36.140Z,15.56
2019-03-22T08:09:11.431Z,16.15
2019-03-22T08:11:42.543Z,15.82
2019-03-22T08:14:16.296Z,16.04
2019-03-22T08:16:47.592Z,16.24
2019-03-22T08:19:21.265Z,16.58
2019-03-22T08:21:52.183Z,16.58
2019-03-22T08:24:24.696Z,16.56
2019-03-22T08:26:57.611Z,16.39
2019-03-22T08:29:28.876Z,16.61
2019-03-22T08:32:06.451Z,16.93
2019-03-22T08:34:41.399Z,16.67
2019-03-22T08:37:12.561Z,16.61
2019-03-22T08:39:44.701Z,16.91
2019-03-22T08:42:15.513Z,17.08
2019-03-22T08:44:46.797Z,17.31
2019-03-22T08:47:18.190Z,16.92
2019-03-22T08:49:50.731Z,17.18
2019-03-22T08:52:24.871Z,17.46
2019-03-22T08:54:58.862Z,17.60
2019-03-22T08:57:31.046Z,17.34
2019-03-22T09:00:02.287Z,17.78
2019-03-22T09:02:33.519Z,17.83
2019-03-22T09:05:04.387Z,17.99
2019-03-22T09:07:38.097Z,18.18
2019-03-22T09:10:11.148Z,18.09
2019-03-22T09:12:43.970Z,18.40
2019-03-22T09:15:15.616Z,18.50
2019-03-22T09:17:47.205Z,18.77
2019-03-22T09:20:20.030Z,18.87
2019-03-22T09:22:50.701Z,19.16
2019-03-22T09:34:11.786Z,19.30
2019-03-22T09:36:45.476Z,19.29
2019-03-22T09:39:17.762Z,19.48
2019-03-22T09:41:50.591Z,19.60
2019-03-22T09:44:21.317Z,19.68
2019-03-22T09:46:52.096Z,20.12
2019-03-22T09:49:22.971Z,20.28
2019-03-22T09:51:55.329Z,20.36
2019-03-22T09:54:26.667Z,20.19
2019-03-22T10:07:35.341Z,21.01
2019-03-22T10:10:07.997Z,21.27
2019-03-22T10:12:40.534Z,20.80
2019-03-22T10:15:12.712Z,20.69
2019-03-22T10:17:45.610Z,21.01
2019-03-22T10:20:17.722Z,21.00
2019-03-22T10:22:48.827Z,21.29
2019-03-22T10:25:22.498Z,20.90
2019-03-22T10:27:55.268Z,21.72
2019-03-22T10:30:26.510Z,21.95
2019-03-22T10:32:57.755Z,22.13
2019-03-22T10:35:29.318Z,22.26
2019-03-22T10:38:06.265Z,22.36
2019-03-22T10:40:39.890Z,22.06
2019-03-22T10:43:15.151Z,21.94
2019-03-22T10:45:47.338Z,22.29
2019-03-22T10:48:19.676Z,22.88
2019-03-22T10:50:51.290Z,22.90
2019-03-22T10:53:22.849Z,22.23
2019-03-22T10:55:54.536Z,22.87
2019-03-22T10:58:25.810Z,23.17
2019-03-22T11:00:57.837Z,22.88
2019-03-22T11:03:30.153Z,22.90
2019-03-22T11:06:02.481Z,23.19
2019-03-22T11:08:34.361Z,23.14
2019-03-22T11:11:08.874Z,22.93
2019-03-22T11:13:41.127Z,22.53
2019-03-22T11:16:12.230Z,22.21
2019-03-22T11:18:46.519Z,22.21
2019-03-22T11:21:20.844Z,22.70
2019-03-22T11:23:52.973Z,21.87
2019-03-22T11:26:24.130Z,22.17
2019-03-22T11:28:55.751Z,22.08
2019-03-22T11:31:28.768Z,22.82
2019-03-22T11:34:02.255Z,23.45
2019-03-22T11:36:34.244Z,24.15
2019-03-22T11:39:15.786Z,24.31
2019-03-22T11:41:46.879Z,23.73
2019-03-22T11:44:21.498Z,24.49
2019-03-22T11:46:54.780Z,24.27
2019-03-22T11:49:28.104Z,24.92
2019-03-22T11:52:02.873Z,24.72
2019-03-22T11:54:35.182Z,24.80
2019-03-22T11:57:07.042Z,25.02
2019-03-22T11:59:38.666Z,25.22
2019-03-22T12:02:11.255Z,24.93
2019-03-22T12:04:44.248Z,25.93
2019-03-22T12:07:17.766Z,26.26
2019-03-22T12:09:51.709Z,26.31
2019-03-22T12:12:25.744Z,26.57
2019-03-22T12:14:58.150Z,26.22
2019-03-22T12:17:29.902Z,25.65
2019-03-22T12:20:06.479Z,26.35
2019-03-22T12:22:39.921Z,26.54
2019-03-22T12:25:12.703Z,26.73
2019-03-22T12:27:44.302Z,26.12
2019-03-22T12:30:16.868Z,26.76
2019-03-22T12:32:48.845Z,26.92
2019-03-22T12:35:20.777Z,26.76
2019-03-22T12:37:51.785Z,26.91
2019-03-22T12:40:23.683Z,27.09
2019-03-22T12:42:56.559Z,27.45
2019-03-22T12:45:27.730Z,28.05
2019-03-22T12:47:58.848Z,29.17
2019-03-22T12:50:31.021Z,29.23
2019-03-22T12:53:02.170Z,28.75
2019-03-22T12:55:33.246Z,28.61
2019-03-22T12:58:04.857Z,30.01
2019-03-22T13:00:36.457Z,30.83
2019-03-22T13:03:08.057Z,32.41
2019-03-22T13:05:40.595Z,33.29
2019-03-22T13:08:11.302Z,32.78
2019-03-22T13:10:45.066Z,33.84
2019-03-22T13:13:17.935Z,34.12
2019-03-22T13:15:50.137Z,34.87
2019-03-22T13:18:20.944Z,34.14
2019-03-22T13:20:53.306Z,32.73
2019-03-22T13:23:31.272Z,34.44
2019-03-22T13:26:05.234Z,34.95
2019-03-22T13:28:43.787Z,35.09
2019-03-22T13:31:17.886Z,36.13
2019-03-22T13:33:51.792Z,35.94
2019-03-22T13:36:26.660Z,37.90
2019-03-22T13:38:58.667Z,38.21
2019-03-22T13:41:42.433Z,38.83
2019-03-22T13:44:13.839Z,37.41
2019-03-22T13:46:44.620Z,36.81
2019-03-22T13:49:15.367Z,36.05
2019-03-22T13:51:47.455Z,37.19
2019-03-22T13:54:19.899Z,36.59
2019-03-22T13:56:51.762Z,35.20
2019-03-22T13:59:23.769Z,37.03
2019-03-22T14:01:54.932Z,36.75
2019-03-22T14:04:27.333Z,34.99
2019-03-22T14:07:00.573Z,36.31
2019-03-22T14:09:32.141Z,37.21
2019-03-22T14:12:03.628Z,37.95
2019-03-22T14:14:36.457Z,38.17
2019-03-22T14:17:07.618Z,37.89
2019-03-22T14:19:38.336Z,38.29
2019-03-22T14:22:11.595Z,39.44
2019-03-22T14:24:43.283Z,38.97
2019-03-22T14:27:16.548Z,40.00
2019-03-22T14:29:48.108Z,39.87
2019-03-22T14:32:20.019Z,41.40
2019-03-22T14:34:52.084Z,41.41
2019-03-22T14:37:25.276Z,41.10
2019-03-22T14:39:55.986Z,39.72
2019-03-22T14:42:27.793Z,39.94
2019-03-22T14:44:59.307Z,39.09
2019-03-22T14:47:30.370Z,37.17
2019-03-22T14:50:02.210Z,38.12
2019-03-22T14:52:34.885Z,38.30
2019-03-22T14:55:09.629Z,38.57
2019-03-22T14:57:48.723Z,38.69
2019-03-22T15:00:15.048Z,37.92
2019-03-22T15:02:48.939Z,37.64
2019-03-22T15:05:20.928Z,38.28
2019-03-22T15:07:56.725Z,38.73
2019-03-22T15:10:31.468Z,37.67
2019-03-22T15:13:07.451Z,34.60
2019-03-22T15:16:06.390Z,35.07
2019-03-22T15:19:05.901Z,36.46
2019-03-22T15:21:55.413Z,35.78
2019-03-22T15:24:37.783Z,35.18
2019-03-22T15:27:38.211Z,33.31
2019-03-22T15:30:30.757Z,32.22
2019-03-22T15:33:34.556Z,29.38
2019-03-22T15:36:25.140Z,29.02
2019-03-22T15:39:21.699Z,28.21
2019-03-22T15:41:57.714Z,28.88
2019-03-22T15:44:31.115Z,28.19
2019-03-22T15:47:06.386Z,27.44
2019-03-22T15:49:40.790Z,27.10
2019-03-22T15:52:11.909Z,26.22
2019-03-22T15:54:42.944Z,25.97
2019-03-22T15:57:14.910Z,25.98
2019-03-22T15:59:46.452Z,25.86
2019-03-22T16:02:17.597Z,25.07
2019-03-22T16:04:49.715Z,25.26
2019-03-22T16:07:21.727Z,24.79
2019-03-22T16:09:54.894Z,24.90
2019-03-22T16:12:26.116Z,24.51
2019-03-22T16:14:58.067Z,24.20
2019-03-22T16:17:29.229Z,24.34
2019-03-22T16:20:00.419Z,23.75
2019-03-22T16:22:31.573Z,24.02
2019-03-22T16:25:05.897Z,24.41
2019-03-22T16:27:37.100Z,24.76
2019-03-22T16:30:09.616Z,24.33
2019-03-22T16:32:41.489Z,24.34
2019-03-22T16:35:13.552Z,24.35
2019-03-22T16:37:44.805Z,24.37
2019-03-22T16:40:24.146Z,24.41
2019-03-22T16:42:51.578Z,24.50
2019-03-22T16:45:44.191Z,24.82
2019-03-22T16:48:15.416Z,24.60
2019-03-22T16:50:46.179Z,24.62
2019-03-22T16:53:18.213Z,24.68
2019-03-22T16:55:54.131Z,24.23
2019-03-22T16:58:25.925Z,24.80
2019-03-22T17:00:59.019Z,24.71
2019-03-22T17:03:34.087Z,24.50
2019-03-22T17:06:08.032Z,24.67
2019-03-22T17:08:39.627Z,24.55
2019-03-22T17:11:11.576Z,24.33
2019-03-22T17:13:43.550Z,24.49
2019-03-22T17:16:15.591Z,24.06
2019-03-22T17:18:48.018Z,24.22
2019-03-22T17:21:18.834Z,24.16
2019-03-22T17:23:50.387Z,24.32
2019-03-22T17:26:21.165Z,24.42
2019-03-22T17:28:57.942Z,24.41
2019-03-22T17:31:33.987Z,24.70
2019-03-22T17:34:14.007Z,24.82
2019-03-22T17:36:39.878Z,24.98
2019-03-22T17:39:11.084Z,25.03
2019-03-22T17:41:42.193Z,24.67
2019-03-22T17:44:14.830Z,24.80
2019-03-22T17:46:48.733Z,24.98
2019-03-22T17:49:19.813Z,25.01
2019-03-22T17:51:51.756Z,25.06
2019-03-22T17:54:24.259Z,25.01
2019-03-22T17:56:56.311Z,24.77
2019-03-22T17:59:28.167Z,24.81
2019-03-22T18:02:00.793Z,24.87
2019-03-22T18:04:33.757Z,24.68
2019-03-22T18:07:07.183Z,24.70
2019-03-22T18:09:37.921Z,24.67
2019-03-22T18:12:09.107Z,24.78
2019-03-22T18:14:43.354Z,24.79
2019-03-22T18:17:15.112Z,24.80
2019-03-22T18:19:46.362Z,24.77
2019-03-22T18:22:17.857Z,24.74
2019-03-22T18:24:49.097Z,24.64
2019-03-22T18:27:19.870Z,24.46
2019-03-22T18:29:50.567Z,24.39
2019-03-22T18:32:22.161Z,24.13
2019-03-22T18:34:53.572Z,24.34
2019-03-22T18:37:24.629Z,24.29
2019-03-22T18:39:55.649Z,24.38
2019-03-22T18:42:28.043Z,24.40
2019-03-22T18:45:00.420Z,24.34
2019-03-22T18:47:33.238Z,24.35
2019-03-22T18:50:06.027Z,24.34
2019-03-22T18:52:38.553Z,24.29
2019-03-22T18:55:10.321Z,24.18
2019-03-22T18:57:42.831Z,24.06
2019-03-22T19:00:18.608Z,24.06
2019-03-22T19:02:52.076Z,23.91
2019-03-22T19:05:23.706Z,23.91
2019-03-22T19:07:54.591Z,23.81
2019-03-22T19:10:25.364Z,23.56
2019-03-22T19:13:01.321Z,23.56
2019-03-22T19:15:34.013Z,23.51
2019-03-22T19:18:06.624Z,23.45
2019-03-22T19:20:41.394Z,23.37
2019-03-22T19:23:14.953Z,23.23
2019-03-22T19:25:47.467Z,23.20
2019-03-22T19:29:47.248Z,23.14
2019-03-22T19:31:19.289Z,23.06
2019-03-22T19:33:51.837Z,23.01
2019-03-22T19:36:32.616Z,22.91
2019-03-22T19:39:10.262Z,22.87
2019-03-22T19:41:47.127Z,22.81
2019-03-22T19:44:21.999Z,22.68
2019-03-22T19:46:53.660Z,22.49
2019-03-22T19:49:27.651Z,22.49
2019-03-22T19:52:01.701Z,22.31
2019-03-22T19:54:37.304Z,21.92
2019-03-22T19:57:12.089Z,21.91
2019-03-22T19:59:43.431Z,21.44
2019-03-22T20:02:15.337Z,21.55
2019-03-22T20:04:48.063Z,21.27
2019-03-22T20:07:27.076Z,21.29
2019-03-22T20:09:57.488Z,21.16
2019-03-22T20:12:29.327Z,20.79
2019-03-22T20:15:09.344Z,21.01
2019-03-22T20:17:40.741Z,21.23
2019-03-22T20:20:13.519Z,21.12
2019-03-22T20:22:44.232Z,21.30
2019-03-22T20:25:16.327Z,20.88
2019-03-22T20:27:48.131Z,21.14
2019-03-22T20:30:23.884Z,21.07
2019-03-22T20:32:56.318Z,21.07
2019-03-22T20:35:29.221Z,20.88
2019-03-22T20:38:01.163Z,20.84
2019-03-22T20:40:32.265Z,20.63
2019-03-22T20:43:04.368Z,20.78
2019-03-22T20:45:35.127Z,20.69
2019-03-22T20:48:08.775Z,20.85
2019-03-22T20:50:44.100Z,20.56
2019-03-22T20:53:16.289Z,20.39
2019-03-22T20:55:50.066Z,20.83
2019-03-22T20:58:22.745Z,20.94
2019-03-22T21:00:54.209Z,21.02
2019-03-22T21:03:25.277Z,20.91
2019-03-22T21:05:58.322Z,21.00
2019-03-22T21:08:31.381Z,20.99
2019-03-22T21:11:03.274Z,21.14
2019-03-22T21:13:36.334Z,20.91
2019-03-22T21:16:08.223Z,20.41
2019-03-22T21:18:43.056Z,20.18
2019-03-22T21:21:18.784Z,20.15
2019-03-22T21:23:52.255Z,20.05
2019-03-22T21:26:24.183Z,20.36
2019-03-22T21:28:57.921Z,20.13
2019-03-22T21:31:28.693Z,20.02
2019-03-22T21:33:59.989Z,20.15
2019-03-22T21:36:31.903Z,20.18
2019-03-22T21:39:05.720Z,20.07
2019-03-22T21:41:36.883Z,19.29
2019-03-22T21:44:07.885Z,18.88
2019-03-22T21:46:42.523Z,18.16
2019-03-22T21:49:25.246Z,18.90
2019-03-22T21:52:02.122Z,18.66
2019-03-22T21:54:33.234Z,18.76
2019-03-22T21:57:04.333Z,19.38
2019-03-22T21:59:35.568Z,19.68
2019-03-22T22:02:06.916Z,19.77
2019-03-22T22:04:38.057Z,20.04
2019-03-22T22:07:12.180Z,20.23
2019-03-22T22:09:43.823Z,20.40
2019-03-22T22:12:29.868Z,20.31
2019-03-22T22:15:15.022Z,20.42
2019-03-22T22:17:48.364Z,20.45
2019-03-22T22:20:28.436Z,20.23
2019-03-22T22:22:56.103Z,20.45
2019-03-22T22:25:27.665Z,19.86
2019-03-22T22:27:59.878Z,20.14
2019-03-22T22:30:31.931Z,20.26
2019-03-22T22:33:03.056Z,20.30
2019-03-22T22:35:35.325Z,20.10
2019-03-22T22:38:09.841Z,19.65
2019-03-22T22:40:41.735Z,19.05
2019-03-22T22:43:13.226Z,19.02
2019-03-22T22:45:44.218Z,19.32
2019-03-22T22:48:18.175Z,19.72
2019-03-22T22:50:49.765Z,19.71
2019-03-22T22:53:23.765Z,19.65
2019-03-22T22:55:54.492Z,19.70
2019-03-22T22:58:26.555Z,19.77
2019-03-22T23:00:58.794Z,19.89
2019-03-22T23:03:31.581Z,20.00
2019-03-22T23:06:09.668Z,20.04
2019-03-22T23:08:41.577Z,20.11
2019-03-22T23:11:13.169Z,20.04
2019-03-22T23:13:44.065Z,19.80
2019-03-22T23:16:15.527Z,19.92
2019-03-22T23:18:47.502Z,19.97
2019-03-22T23:21:19.368Z,19.89
2019-03-22T23:23:52.367Z,19.89
2019-03-22T23:26:25.594Z,20.00
2019-03-22T23:28:57.660Z,20.01
2019-03-22T23:31:29.367Z,20.00
2019-03-22T23:34:01.636Z,20.02
2019-03-22T23:36:34.303Z,20.05
2019-03-22T23:39:13.174Z,20.03
2019-03-22T23:41:48.637Z,19.93
2019-03-22T23:44:21.405Z,19.95
2019-03-22T23:46:53.320Z,19.93
2019-03-22T23:49:24.550Z,19.92
2019-03-22T23:51:55.683Z,19.90
2019-03-22T23:54:27.536Z,19.86
2019-03-22T23:56:58.531Z,19.75
2019-03-22T23:59:29.443Z,19.75
